Time;durP1;ratioP1;P1;durP2;ratioP2;P2;SDS_P1;SDS_P2;PMS_P1;PMS_P2;Temp;Humidity;BMP_temperature;BMP_pressure;BME280_temperature;BME280_humidity;BME280_pressure;Samples;Min_cycle;Max_cycle;Signal;HPM_P1;HPM_P2
2023/04/04 00:00:38;;;;;;;6.03;3.10;;;;;;;;;;4916325;28;20039;-71
2023/04/04 00:03:03;;;;;;;9.95;3.42;;;;;;;;;;4919558;28;20070;-72
2023/04/04 00:05:29;;;;;;;5.85;3.30;;;;;;;;;;4918643;28;20100;-72
2023/04/04 00:07:54;;;;;;;6.05;2.58;;;;;;;;;;4917483;28;20066;-72
2023/04/04 00:10:20;;;;;;;8.52;2.95;;;;;;;;;;4917708;28;20122;-72
2023/04/04 00:12:50;;;;;;;7.53;2.92;;;;;;;;;;4917363;28;20036;-72
2023/04/04 00:15:15;;;;;;;8.60;3.28;;;;;;;;;;4921030;28;20055;-72
2023/04/04 00:17:41;;;;;;;7.65;3.42;;;;;;;;;;4920026;28;20114;-72
2023/04/04 00:20:06;;;;;;;7.35;3.10;;;;;;;;;;4921412;28;20039;-71
2023/04/04 00:22:31;;;;;;;7.13;3.17;;;;;;;;;;4918211;28;20106;-71
2023/04/04 00:24:57;;;;;;;9.02;3.45;;;;;;;;;;4917862;28;20185;-70
2023/04/04 00:27:23;;;;;;;6.78;3.50;;;;;;;;;;4911856;28;20190;-70
2023/04/04 00:29:48;;;;;;;9.23;3.22;;;;;;;;;;4917266;28;20035;-70
2023/04/04 00:32:13;;;;;;;6.97;3.50;;;;;;;;;;4912369;28;20500;-71
2023/04/04 00:34:41;;;;;;;9.85;3.58;;;;;;;;;;4918036;28;20046;-71
2023/04/04 00:37:11;;;;;;;6.78;3.28;;;;;;;;;;4915844;28;20035;-72
2023/04/04 00:39:37;;;;;;;7.38;3.60;;;;;;;;;;4916657;28;20265;-70
2023/04/04 00:42:03;;;;;;;5.97;4.05;;;;;;;;;;4917215;28;20035;-70
2023/04/04 00:44:29;;;;;;;8.25;3.78;;;;;;;;;;4946612;28;20044;-70
2023/04/04 00:46:57;;;;;;;6.75;3.60;;;;;;;;;;4919140;28;20035;-71
2023/04/04 00:49:22;;;;;;;8.55;3.60;;;;;;;;;;4918045;28;20472;-71
2023/04/04 00:51:48;;;;;;;7.30;3.60;;;;;;;;;;4910727;28;20043;-71
2023/04/04 00:54:13;;;;;;;7.15;3.90;;;;;;;;;;4917452;28;20054;-72
2023/04/04 00:56:38;;;;;;;9.38;4.10;;;;;;;;;;4917292;28;20049;-71
2023/04/04 00:59:04;;;;;;;9.57;3.80;;;;;;;;;;4916316;28;20092;-72
2023/04/04 01:01:32;;;;;;;8.20;3.97;;;;;;;;;;4915065;28;20493;-70
2023/04/04 01:03:57;;;;;;;11.45;4.47;;;;;;;;;;4917710;28;20104;-70
2023/04/04 01:06:29;;;;;;;9.80;4.05;;;;;;;;;;4916635;28;20044;-71
2023/04/04 01:08:57;;;;;;;10.25;4.47;;;;;;;;;;4914905;28;20575;-71
2023/04/04 01:11:25;;;;;;;9.13;4.00;;;;;;;;;;4913442;28;20100;-71
2023/04/04 01:13:55;;;;;;;9.50;4.22;;;;;;;;;;4915723;28;21187;-71
2023/04/04 01:16:23;;;;;;;9.43;4.43;;;;;;;;;;4914670;28;20081;-71
2023/04/04 01:18:49;;;;;;;9.37;4.60;;;;;;;;;;4914832;28;20043;-72
2023/04/04 01:21:16;;;;;;;8.85;4.47;;;;;;;;;;4909406;28;20043;-71
2023/04/04 01:24:00;;;;;;;10.35;4.50;;;;;;;;;;4915395;28;20162;-71
2023/04/04 01:26:26;;;;;;;9.63;4.10;;;;;;;;;;4916994;28;20043;-71
2023/04/04 01:28:51;;;;;;;10.15;4.22;;;;;;;;;;4917273;28;20050;-72
2023/04/04 01:31:20;;;;;;;7.03;4.10;;;;;;;;;;4946355;28;20045;-72
2023/04/04 01:33:48;;;;;;;9.15;3.92;;;;;;;;;;4914603;28;21070;-71
2023/04/04 01:36:17;;;;;;;8.82;4.15;;;;;;;;;;4915817;28;21087;-71
2023/04/04 01:38:54;;;;;;;8.13;4.45;;;;;;;;;;4918319;28;20177;-70
2023/04/04 01:41:20;;;;;;;10.52;4.65;;;;;;;;;;4915928;28;20258;-71
2023/04/04 01:43:46;;;;;;;8.35;4.78;;;;;;;;;;4914342;28;20362;-71
2023/04/04 01:46:11;;;;;;;10.23;5.03;;;;;;;;;;4945535;28;20366;-70
2023/04/04 01:48:36;;;;;;;11.50;5.18;;;;;;;;;;4917396;28;20047;-70
2023/04/04 01:51:02;;;;;;;10.73;5.22;;;;;;;;;;4915920;28;20046;-69
2023/04/04 01:53:27;;;;;;;11.50;5.25;;;;;;;;;;4914358;28;20688;-71
2023/04/04 01:55:53;;;;;;;12.52;5.50;;;;;;;;;;4917113;28;20089;-71
2023/04/04 01:58:19;;;;;;;7.75;4.90;;;;;;;;;;4926528;28;20393;-71
2023/04/04 02:00:44;;;;;;;11.80;5.50;;;;;;;;;;4911132;28;20139;-71
2023/04/04 02:03:09;;;;;;;8.65;5.10;;;;;;;;;;4914685;28;20036;-73
2023/04/04 02:05:34;;;;;;;10.52;5.15;;;;;;;;;;4919622;28;20242;-71
2023/04/04 02:08:00;;;;;;;12.63;5.63;;;;;;;;;;4957610;28;20046;-71
2023/04/04 02:10:25;;;;;;;11.25;5.53;;;;;;;;;;4917987;28;20027;-70
2023/04/04 02:12:53;;;;;;;10.82;5.10;;;;;;;;;;4916894;28;20128;-70
2023/04/04 02:15:18;;;;;;;11.85;5.43;;;;;;;;;;4918540;28;20063;-71
2023/04/04 02:17:47;;;;;;;14.98;6.28;;;;;;;;;;4915646;28;20035;-70
2023/04/04 02:20:17;;;;;;;11.18;6.03;;;;;;;;;;4902223;28;20093;-71
2023/04/04 02:22:48;;;;;;;10.55;5.63;;;;;;;;;;4917477;28;20788;-71
2023/04/04 02:25:14;;;;;;;12.07;6.10;;;;;;;;;;4917022;28;20209;-71
2023/04/04 02:27:44;;;;;;;12.18;6.22;;;;;;;;;;4919283;28;20267;-71
2023/04/04 02:30:09;;;;;;;10.30;6.22;;;;;;;;;;4920617;28;20113;-73
2023/04/04 02:32:35;;;;;;;10.45;6.43;;;;;;;;;;4927475;28;20047;-71
2023/04/04 02:35:00;;;;;;;11.75;6.43;;;;;;;;;;4918592;28;20440;-71
2023/04/04 02:37:25;;;;;;;11.82;6.60;;;;;;;;;;4919297;28;20736;-70
2023/04/04 02:39:51;;;;;;;9.95;6.40;;;;;;;;;;4921962;28;20625;-72
2023/04/04 02:42:16;;;;;;;14.60;6.65;;;;;;;;;;4917024;28;20062;-70
2023/04/04 02:44:41;;;;;;;15.38;7.22;;;;;;;;;;4918996;28;20451;-73
2023/04/04 02:47:06;;;;;;;13.52;7.03;;;;;;;;;;4925442;28;20042;-70
2023/04/04 02:49:32;;;;;;;13.40;7.25;;;;;;;;;;4901113;28;20464;-71
2023/04/04 02:51:57;;;;;;;10.70;6.45;;;;;;;;;;4914816;28;20054;-71
2023/04/04 02:54:22;;;;;;;12.57;6.82;;;;;;;;;;4918658;28;20500;-71
2023/04/04 02:56:47;;;;;;;13.07;6.93;;;;;;;;;;4918584;28;20043;-71
2023/04/04 02:59:13;;;;;;;13.98;7.43;;;;;;;;;;4918311;28;20531;-71
2023/04/04 03:01:38;;;;;;;15.13;7.28;;;;;;;;;;4919785;28;20066;-71
2023/04/04 03:04:05;;;;;;;13.27;6.95;;;;;;;;;;4913225;28;20761;-70
2023/04/04 03:06:31;;;;;;;16.30;7.27;;;;;;;;;;4919922;28;20039;-71
2023/04/04 03:08:57;;;;;;;13.23;6.85;;;;;;;;;;4915457;28;20035;-71
2023/04/04 03:11:25;;;;;;;11.43;6.37;;;;;;;;;;4937321;28;20054;-71
2023/04/04 03:13:50;;;;;;;12.20;6.25;;;;;;;;;;4943512;28;20148;-71
2023/04/04 03:16:18;;;;;;;10.77;6.68;;;;;;;;;;4917510;28;20035;-72
2023/04/04 03:18:44;;;;;;;9.13;6.50;;;;;;;;;;4913994;28;21826;-71
2023/04/04 03:21:09;;;;;;;12.80;6.80;;;;;;;;;;4918063;28;20595;-71
2023/04/04 03:23:34;;;;;;;11.95;6.50;;;;;;;;;;4915409;28;20063;-71
2023/04/04 03:26:00;;;;;;;12.70;6.43;;;;;;;;;;4947566;28;20051;-71
2023/04/04 03:28:26;;;;;;;12.70;7.13;;;;;;;;;;4926368;28;20397;-71
2023/04/04 03:30:54;;;;;;;12.02;6.93;;;;;;;;;;4918015;28;20047;-71
2023/04/04 03:33:20;;;;;;;13.33;6.80;;;;;;;;;;4917193;28;20439;-72
2023/04/04 03:35:46;;;;;;;15.03;7.20;;;;;;;;;;4919153;28;20180;-70
2023/04/04 03:38:12;;;;;;;13.50;7.43;;;;;;;;;;4918812;28;20200;-72
2023/04/04 03:40:37;;;;;;;12.57;7.20;;;;;;;;;;4919416;28;20143;-70
2023/04/04 03:43:05;;;;;;;12.70;7.20;;;;;;;;;;4917856;28;20043;-73
2023/04/04 03:45:33;;;;;;;12.33;7.93;;;;;;;;;;4921590;28;20043;-73
2023/04/04 03:47:58;;;;;;;12.77;7.93;;;;;;;;;;4931701;28;20096;-72
2023/04/04 03:50:23;;;;;;;12.77;7.77;;;;;;;;;;4918174;28;20046;-72
2023/04/04 03:52:51;;;;;;;14.17;8.27;;;;;;;;;;4917294;28;20523;-72
2023/04/04 03:55:16;;;;;;;15.40;7.80;;;;;;;;;;4917832;28;20055;-71
2023/04/04 03:57:42;;;;;;;12.83;7.70;;;;;;;;;;4918695;28;20050;-72
2023/04/04 04:00:07;;;;;;;13.27;8.30;;;;;;;;;;4916050;28;20047;-72
2023/04/04 04:02:32;;;;;;;16.93;8.10;;;;;;;;;;4933761;28;20104;-72
2023/04/04 04:04:58;;;;;;;14.80;8.43;;;;;;;;;;4910631;28;20059;-72
2023/04/04 04:07:23;;;;;;;13.77;8.43;;;;;;;;;;4918239;28;20105;-72
2023/04/04 04:09:51;;;;;;;15.73;9.10;;;;;;;;;;4944741;28;20031;-71
2023/04/04 04:12:21;;;;;;;15.10;8.83;;;;;;;;;;4898022;28;20055;-71
2023/04/04 04:14:46;;;;;;;15.53;8.97;;;;;;;;;;4915244;28;20055;-72
2023/04/04 04:17:12;;;;;;;13.83;9.07;;;;;;;;;;4913645;28;20202;-72
2023/04/04 04:19:37;;;;;;;14.77;8.83;;;;;;;;;;4913836;28;20088;-72
2023/04/04 04:22:02;;;;;;;13.73;8.80;;;;;;;;;;4916734;28;20507;-72
2023/04/04 04:24:30;;;;;;;16.80;10.10;;;;;;;;;;4913480;28;20039;-70
2023/04/04 04:26:55;;;;;;;18.90;10.30;;;;;;;;;;4913699;28;20086;-71
2023/04/04 04:29:20;;;;;;;17.90;10.03;;;;;;;;;;4918070;28;20035;-72
2023/04/04 04:31:46;;;;;;;15.70;9.80;;;;;;;;;;4912962;28;20054;-71
2023/04/04 04:34:11;;;;;;;17.37;10.20;;;;;;;;;;4934035;28;20500;-72
2023/04/04 04:36:36;;;;;;;17.77;10.53;;;;;;;;;;4917249;28;20039;-72
2023/04/04 04:39:01;;;;;;;16.93;10.90;;;;;;;;;;4915489;28;20036;-71
2023/04/04 04:41:28;;;;;;;15.40;10.00;;;;;;;;;;4916089;28;20944;-71
2023/04/04 04:43:55;;;;;;;18.77;11.07;;;;;;;;;;4916831;28;20061;-72
2023/04/04 04:46:21;;;;;;;17.87;11.00;;;;;;;;;;4915374;28;20440;-72
2023/04/04 04:48:46;;;;;;;23.20;11.00;;;;;;;;;;4916292;28;20051;-72
2023/04/04 04:51:13;;;;;;;20.83;11.30;;;;;;;;;;4913034;28;20058;-71
2023/04/04 04:53:41;;;;;;;16.53;10.80;;;;;;;;;;4920121;28;20762;-72
2023/04/04 04:56:09;;;;;;;20.13;11.97;;;;;;;;;;4914698;28;20035;-73
2023/04/04 04:58:34;;;;;;;21.00;11.90;;;;;;;;;;4915820;28;20046;-74
2023/04/04 05:00:59;;;;;;;21.90;12.13;;;;;;;;;;4911821;28;20543;-72
2023/04/04 05:03:25;;;;;;;18.93;12.37;;;;;;;;;;4896234;28;20071;-74
2023/04/04 05:05:50;;;;;;;21.57;12.23;;;;;;;;;;4915146;28;20485;-72
2023/04/04 05:08:18;;;;;;;19.83;12.07;;;;;;;;;;4915237;28;20814;-72
2023/04/04 05:10:43;;;;;;;20.30;11.40;;;;;;;;;;4911776;28;20519;-70
2023/04/04 05:13:12;;;;;;;19.97;11.97;;;;;;;;;;4912232;28;20043;-73
2023/04/04 05:15:40;;;;;;;20.57;11.97;;;;;;;;;;4909595;28;20634;-73
2023/04/04 05:18:10;;;;;;;23.07;13.07;;;;;;;;;;4912241;28;20041;-73
2023/04/04 05:20:36;;;;;;;21.37;13.17;;;;;;;;;;4914113;28;20751;-71
2023/04/04 05:23:01;;;;;;;20.27;11.73;;;;;;;;;;4914810;28;20045;-71
2023/04/04 05:25:26;;;;;;;20.97;12.40;;;;;;;;;;4931029;28;20039;-71
2023/04/04 05:27:51;;;;;;;21.70;12.27;;;;;;;;;;4916105;28;20031;-69
2023/04/04 05:30:17;;;;;;;22.07;12.37;;;;;;;;;;4915251;28;20277;-70
2023/04/04 05:32:49;;;;;;;25.87;13.53;;;;;;;;;;4913784;28;20035;-70
2023/04/04 05:35:15;;;;;;;28.30;18.07;;;;;;;;;;4909855;28;20799;-70
2023/04/04 05:37:40;;;;;;;24.03;15.50;;;;;;;;;;4910349;28;20123;-70
2023/04/04 05:40:06;;;;;;;32.37;19.63;;;;;;;;;;4946606;28;20094;-70
2023/04/04 05:42:31;;;;;;;30.53;17.37;;;;;;;;;;4898681;28;20037;-70
2023/04/04 05:44:56;;;;;;;29.80;16.47;;;;;;;;;;4915533;28;20385;-68
2023/04/04 05:47:24;;;;;;;29.10;16.17;;;;;;;;;;4915013;28;20046;-70
2023/04/04 05:49:49;;;;;;;25.20;14.37;;;;;;;;;;4918437;28;20066;-71
2023/04/04 05:52:15;;;;;;;22.20;14.70;;;;;;;;;;4913645;28;20035;-71
2023/04/04 05:54:42;;;;;;;23.33;14.67;;;;;;;;;;4916931;28;20055;-70
2023/04/04 05:57:10;;;;;;;21.30;13.63;;;;;;;;;;4915898;28;20420;-70
2023/04/04 05:59:36;;;;;;;25.70;13.47;;;;;;;;;;4915708;28;20095;-70
2023/04/04 06:02:01;;;;;;;21.63;13.57;;;;;;;;;;4912609;28;20039;-69
2023/04/04 06:04:26;;;;;;;22.00;13.80;;;;;;;;;;4923828;28;20043;-70
2023/04/04 06:06:52;;;;;;;26.13;14.05;;;;;;;;;;4916435;28;20849;-71
2023/04/04 06:09:17;;;;;;;21.83;13.33;;;;;;;;;;4919284;28;20035;-72
2023/04/04 06:11:42;;;;;;;19.97;13.37;;;;;;;;;;4915733;28;20039;-69
2023/04/04 06:14:08;;;;;;;20.30;13.63;;;;;;;;;;4914268;28;20071;-70
2023/04/04 06:16:35;;;;;;;26.63;13.30;;;;;;;;;;4897891;28;20221;-70
2023/04/04 06:19:01;;;;;;;19.77;13.18;;;;;;;;;;4897705;28;20028;-70
2023/04/04 06:21:26;;;;;;;23.40;13.97;;;;;;;;;;4894955;28;20071;-69
2023/04/04 06:23:53;;;;;;;19.20;13.47;;;;;;;;;;4899907;28;20036;-70
2023/04/04 06:26:19;;;;;;;20.73;13.55;;;;;;;;;;4897801;28;20127;-70
2023/04/04 06:28:48;;;;;;;23.63;13.27;;;;;;;;;;4898295;28;20040;-70
2023/04/04 06:31:14;;;;;;;23.13;13.82;;;;;;;;;;4901016;28;20039;-70
2023/04/04 06:33:39;;;;;;;24.25;12.50;;;;;;;;;;4898672;28;20028;-70
2023/04/04 06:36:05;;;;;;;19.05;11.98;;;;;;;;;;4900949;28;20120;-70
2023/04/04 06:38:30;;;;;;;22.38;12.82;;;;;;;;;;4900415;28;20047;-70
2023/04/04 06:40:56;;;;;;;23.45;12.60;;;;;;;;;;4899159;28;20032;-71
2023/04/04 06:43:22;;;;;;;20.15;12.48;;;;;;;;;;4899082;28;20051;-72
2023/04/04 06:45:49;;;;;;;26.15;12.02;;;;;;;;;;4893499;28;20036;-69
2023/04/04 06:48:15;;;;;;;20.20;11.80;;;;;;;;;;4912201;28;20040;-70
2023/04/04 06:50:40;;;;;;;21.27;11.52;;;;;;;;;;4900088;28;20619;-69
2023/04/04 06:53:06;;;;;;;24.73;12.25;;;;;;;;;;4901400;28;21018;-71
2023/04/04 06:55:32;;;;;;;26.13;10.32;;;;;;;;;;4903338;28;20108;-70
2023/04/04 06:57:57;;;;;;;26.25;10.43;;;;;;;;;;4906698;28;20662;-69
2023/04/04 07:00:22;;;;;;;18.17;9.45;;;;;;;;;;4902040;28;20027;-68
2023/04/04 07:02:48;;;;;;;18.05;8.63;;;;;;;;;;4905936;28;20035;-72
2023/04/04 07:05:16;;;;;;;17.20;8.07;;;;;;;;;;4905029;28;20036;-69
2023/04/04 07:07:41;;;;;;;10.65;6.57;;;;;;;;;;4900531;28;20036;-68
2023/04/04 07:10:07;;;;;;;11.10;5.90;;;;;;;;;;4899697;28;20039;-67
2023/04/04 07:12:32;;;;;;;12.27;6.10;;;;;;;;;;4897996;28;20134;-69
2023/04/04 07:14:57;;;;;;;16.95;5.53;;;;;;;;;;4897907;28;20055;-69
2023/04/04 07:17:23;;;;;;;12.32;5.70;;;;;;;;;;4891787;28;20160;-68
2023/04/04 07:19:49;;;;;;;10.68;5.65;;;;;;;;;;4895914;28;20116;-68
2023/04/04 07:22:14;;;;;;;10.00;5.78;;;;;;;;;;4891427;28;20301;-67
2023/04/04 07:24:42;;;;;;;8.25;5.22;;;;;;;;;;4896914;28;20460;-68
2023/04/04 07:27:14;;;;;;;10.85;5.30;;;;;;;;;;4898656;28;20480;-68
2023/04/04 07:29:39;;;;;;;9.82;5.00;;;;;;;;;;4891188;28;20327;-68
2023/04/04 07:32:04;;;;;;;6.95;4.30;;;;;;;;;;4895154;28;20146;-70
2023/04/04 07:34:32;;;;;;;9.43;4.97;;;;;;;;;;4897619;28;20091;-67
2023/04/04 07:36:58;;;;;;;8.27;3.83;;;;;;;;;;4897969;28;20117;-65
2023/04/04 07:39:23;;;;;;;12.82;4.38;;;;;;;;;;4891731;28;20073;-72
2023/04/04 07:41:51;;;;;;;7.28;4.25;;;;;;;;;;4900179;28;20420;-72
2023/04/04 07:44:18;;;;;;;8.65;3.95;;;;;;;;;;4895029;28;20036;-70
2023/04/04 07:46:44;;;;;;;6.75;3.67;;;;;;;;;;4924587;28;20883;-74
2023/04/04 07:49:09;;;;;;;6.43;3.60;;;;;;;;;;4897364;28;20040;-72
2023/04/04 07:51:37;;;;;;;9.30;3.50;;;;;;;;;;4894957;28;21879;-72
2023/04/04 07:54:02;;;;;;;9.93;4.00;;;;;;;;;;4896681;28;20584;-72
2023/04/04 07:56:28;;;;;;;9.38;3.97;;;;;;;;;;4894337;28;20398;-71
2023/04/04 07:58:53;;;;;;;7.22;3.50;;;;;;;;;;4895079;28;20549;-71
2023/04/04 08:01:18;;;;;;;10.73;4.38;;;;;;;;;;4890755;28;20040;-71
2023/04/04 08:03:43;;;;;;;12.85;4.13;;;;;;;;;;4903748;28;20060;-71
2023/04/04 08:06:09;;;;;;;9.18;3.92;;;;;;;;;;4893605;28;20448;-73
2023/04/04 08:08:35;;;;;;;13.23;4.10;;;;;;;;;;4890955;28;20044;-73
2023/04/04 08:11:00;;;;;;;12.93;5.40;;;;;;;;;;4911199;28;20590;-72
2023/04/04 08:13:28;;;;;;;12.82;5.82;;;;;;;;;;4878362;28;20115;-70
2023/04/04 08:15:57;;;;;;;11.85;6.00;;;;;;;;;;4894517;28;20132;-71
2023/04/04 08:18:22;;;;;;;12.75;6.40;;;;;;;;;;4914542;28;20039;-72
2023/04/04 08:20:48;;;;;;;12.52;5.82;;;;;;;;;;4893930;28;20496;-73
2023/04/04 08:23:14;;;;;;;13.52;5.45;;;;;;;;;;4897596;28;20341;-72
2023/04/04 08:25:39;;;;;;;10.27;5.05;;;;;;;;;;4894940;28;20036;-70
2023/04/04 08:28:04;;;;;;;9.10;4.70;;;;;;;;;;4901280;28;20035;-71
2023/04/04 08:30:30;;;;;;;11.35;4.97;;;;;;;;;;4898372;28;20087;-70
2023/04/04 08:32:56;;;;;;;14.85;4.90;;;;;;;;;;4905170;28;20035;-71
2023/04/04 08:35:21;;;;;;;11.68;4.97;;;;;;;;;;4898185;28;20068;-70
2023/04/04 08:37:47;;;;;;;9.25;4.57;;;;;;;;;;4898436;28;20467;-71
2023/04/04 08:40:15;;;;;;;10.35;4.15;;;;;;;;;;4899638;28;20528;-71
2023/04/04 08:42:44;;;;;;;9.15;3.53;;;;;;;;;;4898148;28;20047;-72
2023/04/04 08:45:10;;;;;;;9.18;3.80;;;;;;;;;;4897419;28;20070;-70
2023/04/04 08:47:37;;;;;;;6.60;3.13;;;;;;;;;;4896112;28;20142;-72
2023/04/04 08:50:03;;;;;;;6.10;3.30;;;;;;;;;;4896094;28;20058;-72
2023/04/04 08:52:30;;;;;;;6.47;2.70;;;;;;;;;;4894786;28;20101;-72
2023/04/04 08:54:56;;;;;;;5.63;2.45;;;;;;;;;;4897534;28;20460;-72
2023/04/04 08:57:22;;;;;;;5.28;2.20;;;;;;;;;;4925011;28;20042;-71
2023/04/04 08:59:50;;;;;;;7.72;2.97;;;;;;;;;;4896237;28;20036;-72
2023/04/04 09:02:38;;;;;;;5.10;2.70;;;;;;;;;;4975233;28;20121;-72
2023/04/04 09:05:05;;;;;;;5.95;2.67;;;;;;;;;;4897249;28;20804;-72
2023/04/04 09:07:30;;;;;;;4.32;2.50;;;;;;;;;;4896341;28;20182;-72
2023/04/04 09:09:56;;;;;;;7.47;2.90;;;;;;;;;;4892335;28;20039;-73
2023/04/04 09:12:21;;;;;;;6.90;2.85;;;;;;;;;;4893812;28;20054;-72
2023/04/04 09:14:51;;;;;;;8.15;2.55;;;;;;;;;;4884003;28;20885;-72
2023/04/04 09:17:17;;;;;;;5.35;2.22;;;;;;;;;;4898716;28;20069;-73
2023/04/04 09:19:42;;;;;;;3.85;2.30;;;;;;;;;;4897374;28;20599;-73
2023/04/04 09:22:08;;;;;;;6.32;2.70;;;;;;;;;;4897223;28;20111;-71
2023/04/04 09:24:41;;;;;;;5.70;2.58;;;;;;;;;;4896956;28;20951;-70
2023/04/04 09:27:10;;;;;;;5.53;2.70;;;;;;;;;;4932219;28;20035;-69
2023/04/04 09:29:40;;;;;;;7.15;2.80;;;;;;;;;;4898298;28;21022;-72
2023/04/04 09:32:08;;;;;;;5.03;2.60;;;;;;;;;;4896716;28;20043;-70
2023/04/04 09:34:37;;;;;;;7.00;2.92;;;;;;;;;;4899158;28;20039;-70
2023/04/04 09:37:04;;;;;;;6.40;2.75;;;;;;;;;;4897642;28;20031;-71
2023/04/04 09:39:31;;;;;;;4.47;2.63;;;;;;;;;;4909539;28;20146;-70
2023/04/04 09:41:59;;;;;;;5.72;2.70;;;;;;;;;;4894053;28;20097;-71
2023/04/04 09:44:25;;;;;;;8.88;3.60;;;;;;;;;;4896351;28;20043;-71
2023/04/04 09:46:56;;;;;;;7.03;3.17;;;;;;;;;;4907150;28;20042;-70
2023/04/04 09:49:21;;;;;;;5.22;2.58;;;;;;;;;;4894701;28;20158;-72
2023/04/04 09:51:47;;;;;;;7.65;2.47;;;;;;;;;;4895033;28;20032;-69
2023/04/04 09:54:19;;;;;;;5.55;2.85;;;;;;;;;;4899787;28;20177;-71
2023/04/04 09:56:45;;;;;;;7.20;2.50;;;;;;;;;;4898261;28;20234;-71
2023/04/04 09:59:11;;;;;;;5.90;2.53;;;;;;;;;;4897652;28;20040;-71
2023/04/04 10:01:36;;;;;;;5.68;2.17;;;;;;;;;;4897598;28;20748;-70
2023/04/04 10:04:02;;;;;;;4.25;2.08;;;;;;;;;;4897045;28;20077;-70
2023/04/04 10:06:28;;;;;;;5.72;2.20;;;;;;;;;;4898836;28;20138;-70
2023/04/04 10:08:57;;;;;;;7.28;2.50;;;;;;;;;;4897156;28;20028;-71
2023/04/04 10:11:30;;;;;;;8.85;2.80;;;;;;;;;;4908427;28;20697;-71
2023/04/04 10:13:59;;;;;;;6.97;2.60;;;;;;;;;;4892588;28;20040;-69
2023/04/04 10:16:25;;;;;;;5.55;2.50;;;;;;;;;;4897892;28;20192;-70
2023/04/04 10:18:51;;;;;;;5.45;2.80;;;;;;;;;;4894683;28;20120;-70
2023/04/04 10:21:19;;;;;;;6.32;2.85;;;;;;;;;;4925829;28;20035;-70
2023/04/04 10:23:47;;;;;;;7.72;2.92;;;;;;;;;;4901474;28;21005;-70
2023/04/04 10:26:14;;;;;;;6.22;2.60;;;;;;;;;;4931768;28;20039;-70
2023/04/04 10:28:41;;;;;;;7.28;2.92;;;;;;;;;;4907565;28;21069;-71
2023/04/04 10:31:16;;;;;;;7.13;3.08;;;;;;;;;;4898881;28;20027;-71
2023/04/04 10:34:01;;;;;;;7.18;3.20;;;;;;;;;;4931006;28;20603;-67
2023/04/04 10:36:33;;;;;;;5.88;2.50;;;;;;;;;;4901296;28;20721;-69
2023/04/04 10:39:17;;;;;;;7.60;2.90;;;;;;;;;;4901215;28;20827;-69
2023/04/04 10:41:44;;;;;;;7.55;3.13;;;;;;;;;;4895403;28;20134;-69
2023/04/04 10:44:21;;;;;;;5.63;2.80;;;;;;;;;;4898160;28;21428;-69
2023/04/04 10:46:48;;;;;;;5.80;2.85;;;;;;;;;;4890087;28;20031;-70
2023/04/04 10:49:14;;;;;;;6.88;2.85;;;;;;;;;;4890472;28;20045;-70
2023/04/04 10:51:40;;;;;;;6.63;2.88;;;;;;;;;;4894489;28;20027;-71
2023/04/04 10:54:05;;;;;;;6.55;2.90;;;;;;;;;;4899189;28;20140;-69
2023/04/04 10:56:31;;;;;;;5.55;2.85;;;;;;;;;;4931143;28;20059;-69
2023/04/04 10:59:12;;;;;;;6.97;3.13;;;;;;;;;;4900323;28;20041;-69
2023/04/04 11:01:56;;;;;;;8.75;3.55;;;;;;;;;;4900109;28;20050;-69
2023/04/04 11:04:36;;;;;;;5.75;3.08;;;;;;;;;;4900279;28;20155;-69
2023/04/04 11:07:17;;;;;;;7.78;3.10;;;;;;;;;;4894430;28;20426;-71
2023/04/04 11:09:53;;;;;;;5.63;2.78;;;;;;;;;;4895303;28;20047;-70
2023/04/04 11:12:20;;;;;;;6.28;2.70;;;;;;;;;;4926505;28;20822;-69
2023/04/04 11:14:55;;;;;;;5.50;2.75;;;;;;;;;;4899358;28;20172;-68
2023/04/04 11:17:40;;;;;;;5.78;2.95;;;;;;;;;;4894969;28;20046;-69
2023/04/04 11:20:09;;;;;;;5.00;2.97;;;;;;;;;;4896892;28;20611;-70
2023/04/04 11:22:42;;;;;;;6.57;2.70;;;;;;;;;;4898684;28;20686;-70
2023/04/04 11:25:26;;;;;;;4.97;3.45;;;;;;;;;;4897111;28;21889;-70
2023/04/04 11:27:57;;;;;;;7.07;3.22;;;;;;;;;;4896465;28;20039;-69
2023/04/04 11:30:27;;;;;;;6.50;3.58;;;;;;;;;;4896686;28;20780;-69
2023/04/04 11:32:55;;;;;;;6.15;3.40;;;;;;;;;;4896860;28;20199;-68
2023/04/04 11:35:21;;;;;;;5.50;3.17;;;;;;;;;;4889499;28;20074;-68
2023/04/04 11:37:49;;;;;;;8.93;3.15;;;;;;;;;;4895763;28;20100;-70
2023/04/04 11:40:17;;;;;;;5.68;2.95;;;;;;;;;;4901608;28;20035;-71
2023/04/04 11:42:42;;;;;;;6.40;3.40;;;;;;;;;;4916848;28;20079;-70
2023/04/04 11:45:11;;;;;;;8.45;3.25;;;;;;;;;;4900353;28;20040;-70
2023/04/04 11:47:37;;;;;;;7.65;3.20;;;;;;;;;;4905674;28;20142;-70
2023/04/04 11:50:07;;;;;;;9.35;3.38;;;;;;;;;;4912740;28;20125;-71
2023/04/04 11:52:37;;;;;;;9.02;3.25;;;;;;;;;;4898024;28;20080;-70
2023/04/04 11:55:12;;;;;;;5.97;3.42;;;;;;;;;;4896060;28;20094;-72
2023/04/04 11:57:40;;;;;;;7.72;3.55;;;;;;;;;;4927332;28;20067;-71
2023/04/04 12:00:07;;;;;;;6.18;3.22;;;;;;;;;;4897924;28;20046;-72
2023/04/04 12:02:33;;;;;;;7.00;3.33;;;;;;;;;;4896176;28;20039;-71
2023/04/04 12:04:59;;;;;;;6.88;3.20;;;;;;;;;;4895584;28;20868;-70
2023/04/04 12:07:25;;;;;;;8.07;3.90;;;;;;;;;;4897001;28;20039;-71
2023/04/04 12:09:51;;;;;;;5.90;3.40;;;;;;;;;;4897202;28;20100;-72
2023/04/04 12:12:16;;;;;;;6.22;3.47;;;;;;;;;;4899791;28;20027;-71
2023/04/04 12:14:42;;;;;;;5.93;3.20;;;;;;;;;;4896442;28;20078;-71
2023/04/04 12:17:07;;;;;;;7.47;3.17;;;;;;;;;;4899250;28;20067;-72
2023/04/04 12:19:37;;;;;;;7.28;3.20;;;;;;;;;;4897820;28;20035;-70
2023/04/04 12:22:02;;;;;;;7.95;3.53;;;;;;;;;;4900391;28;20036;-72
2023/04/04 12:24:27;;;;;;;5.60;3.20;;;;;;;;;;4901728;28;20038;-71
2023/04/04 12:26:53;;;;;;;5.68;3.42;;;;;;;;;;4898019;28;20035;-73
2023/04/04 12:29:20;;;;;;;7.57;3.50;;;;;;;;;;4915496;28;20043;-71
2023/04/04 12:31:46;;;;;;;6.80;3.15;;;;;;;;;;4901087;28;20043;-72
2023/04/04 12:34:22;;;;;;;6.82;3.50;;;;;;;;;;4899354;28;20067;-75
2023/04/04 12:36:47;;;;;;;7.07;3.25;;;;;;;;;;4900760;28;20152;-75
2023/04/04 12:39:15;;;;;;;6.53;3.42;;;;;;;;;;4897826;28;20116;-72
2023/04/04 12:41:48;;;;;;;7.50;3.40;;;;;;;;;;4896233;28;20146;-73
2023/04/04 12:44:24;;;;;;;6.80;3.17;;;;;;;;;;4898190;28;20068;-72
2023/04/04 12:46:49;;;;;;;6.07;3.30;;;;;;;;;;4897089;28;20043;-73
2023/04/04 12:49:20;;;;;;;7.53;3.42;;;;;;;;;;4896309;28;20074;-73
2023/04/04 12:51:45;;;;;;;7.28;3.75;;;;;;;;;;4896758;28;20036;-73
2023/04/04 12:54:26;;;;;;;7.47;3.47;;;;;;;;;;4895963;28;20051;-74
2023/04/04 12:56:56;;;;;;;7.18;3.60;;;;;;;;;;4896312;28;20035;-74
2023/04/04 12:59:24;;;;;;;7.28;3.88;;;;;;;;;;4924102;28;20542;-73
2023/04/04 13:01:49;;;;;;;8.48;3.95;;;;;;;;;;4894930;28;20027;-72
2023/04/04 13:04:16;;;;;;;9.65;4.00;;;;;;;;;;4892603;28;20170;-72
2023/04/04 13:06:46;;;;;;;7.07;4.15;;;;;;;;;;4893356;28;20051;-72
2023/04/04 13:09:18;;;;;;;8.65;4.22;;;;;;;;;;4892825;28;20042;-71
2023/04/04 13:11:58;;;;;;;9.30;3.95;;;;;;;;;;4892145;28;20109;-75
2023/04/04 13:14:24;;;;;;;9.93;4.60;;;;;;;;;;4889167;28;20043;-73
2023/04/04 13:17:06;;;;;;;6.88;4.35;;;;;;;;;;4887273;28;20369;-73
2023/04/04 13:19:32;;;;;;;;;;;;;;;;;;4895841;28;20103;-74
2023/04/04 13:22:02;;;;;;;7.55;4.25;;;;;;;;;;4923927;28;19918;-73
2023/04/04 13:24:28;;;;;;;8.52;4.45;;;;;;;;;;4891511;28;20136;-74
2023/04/04 13:26:53;;;;;;;7.97;4.30;;;;;;;;;;4896364;28;20978;-72
2023/04/04 13:29:18;;;;;;;8.20;4.28;;;;;;;;;;4894937;28;20398;-72
2023/04/04 13:31:44;;;;;;;7.93;4.10;;;;;;;;;;4896737;28;20067;-73
2023/04/04 13:34:09;;;;;;;8.82;4.15;;;;;;;;;;4888301;28;20046;-72
2023/04/04 13:36:34;;;;;;;8.15;4.20;;;;;;;;;;4895584;28;21856;-73
2023/04/04 13:39:00;;;;;;;8.10;4.55;;;;;;;;;;4877486;28;20109;-71
2023/04/04 13:41:25;;;;;;;7.88;4.47;;;;;;;;;;4897476;28;20561;-73
2023/04/04 13:43:52;;;;;;;9.35;4.93;;;;;;;;;;4890533;28;20479;-71
2023/04/04 13:46:18;;;;;;;11.65;5.00;;;;;;;;;;4894844;28;20035;-73
2023/04/04 13:48:43;;;;;;;10.30;5.10;;;;;;;;;;4895602;28;20586;-72
2023/04/04 13:51:08;;;;;;;12.45;5.40;;;;;;;;;;4893538;28;21912;-72
2023/04/04 13:53:36;;;;;;;13.02;4.93;;;;;;;;;;4887445;28;20051;-71
2023/04/04 13:56:01;;;;;;;11.27;4.80;;;;;;;;;;4888479;28;20543;-73
2023/04/04 13:58:27;;;;;;;8.98;4.65;;;;;;;;;;4894942;28;21797;-73
2023/04/04 14:00:52;;;;;;;10.98;4.50;;;;;;;;;;4893217;28;20054;-71
2023/04/04 14:03:17;;;;;;;11.02;4.90;;;;;;;;;;4897913;28;20417;-71
2023/04/04 14:05:45;;;;;;;9.30;4.68;;;;;;;;;;4897402;28;20507;-70
2023/04/04 14:08:10;;;;;;;8.43;4.40;;;;;;;;;;4901370;28;20295;-68
2023/04/04 14:10:38;;;;;;;11.25;4.88;;;;;;;;;;4911577;28;20043;-69
2023/04/04 14:13:05;;;;;;;12.07;4.78;;;;;;;;;;4902161;28;20381;-69
2023/04/04 14:15:32;;;;;;;15.18;5.00;;;;;;;;;;4900017;28;20121;-69
2023/04/04 14:17:57;;;;;;;11.32;5.10;;;;;;;;;;4896212;28;20039;-68
2023/04/04 14:20:24;;;;;;;14.45;5.25;;;;;;;;;;4901236;28;20694;-72
2023/04/04 14:22:52;;;;;;;11.85;4.68;;;;;;;;;;4908309;28;20813;-70
2023/04/04 14:25:17;;;;;;;11.00;5.38;;;;;;;;;;4980153;28;21777;-69
2023/04/04 14:27:43;;;;;;;12.35;5.00;;;;;;;;;;4899150;28;20365;-69
2023/04/04 14:30:08;;;;;;;10.20;4.97;;;;;;;;;;4900193;28;22443;-71
2023/04/04 14:32:33;;;;;;;11.27;5.25;;;;;;;;;;4933626;28;20180;-69
2023/04/04 14:34:59;;;;;;;9.43;4.88;;;;;;;;;;4906506;28;20472;-69